createdAt,value
2022-12-06T00:00:02.322Z,73468.69
2022-12-06T00:00:47.397Z,73470.69
2022-12-06T00:01:21.378Z,73472.69
2022-12-06T00:01:53.815Z,73472.69
2022-12-06T00:02:28.766Z,73464.72
2022-12-06T00:03:01.124Z,73464.72
2022-12-06T00:03:33.647Z,73468.69
2022-12-06T00:04:11.769Z,73460.72
2022-12-06T00:04:44.181Z,73460.72
2022-12-06T00:05:16.690Z,73468.69
2022-12-06T00:05:51.634Z,73464.72
2022-12-06T00:06:27.813Z,73468.69
2022-12-06T00:07:02.672Z,73468.69
2022-12-06T00:07:35.028Z,73468.69
2022-12-06T00:08:07.395Z,73466.69
2022-12-06T00:08:40.165Z,73472.69
2022-12-06T00:09:20.285Z,73468.69
2022-12-06T00:09:52.524Z,73468.69
2022-12-06T00:10:25.388Z,73468.69
2022-12-06T00:11:06.540Z,73470.69
2022-12-06T00:11:41.388Z,73468.69
2022-12-06T00:12:16.279Z,73464.72
2022-12-06T00:12:48.598Z,73472.69
2022-12-06T00:13:20.901Z,73466.69
2022-12-06T00:13:56.577Z,73464.72
2022-12-06T00:14:28.864Z,73468.69
2022-12-06T00:15:01.108Z,73474.69
2022-12-06T00:15:38.554Z,73468.69
2022-12-06T00:16:12.817Z,73474.69
2022-12-06T00:16:45.374Z,73476.69
2022-12-06T00:17:20.393Z,73476.69
2022-12-06T00:17:52.660Z,73468.69
2022-12-06T00:18:24.910Z,73476.69
2022-12-06T00:19:00.641Z,73472.69
2022-12-06T00:19:32.858Z,73476.69
2022-12-06T00:20:06.822Z,73472.69
2022-12-06T00:20:41.631Z,73472.69
2022-12-06T00:21:15.604Z,73474.69
2022-12-06T00:21:48.150Z,73476.69
2022-12-06T00:22:22.976Z,73480.69
2022-12-06T00:22:55.213Z,73472.69
2022-12-06T00:23:31.533Z,73472.69
2022-12-06T00:24:08.493Z,73470.69
2022-12-06T00:24:40.776Z,73468.69
2022-12-06T00:25:13.033Z,73468.69
2022-12-06T00:25:47.854Z,73470.69
2022-12-06T00:26:21.161Z,73470.69
2022-12-06T00:26:58.614Z,73472.69
2022-12-06T00:27:31.203Z,73472.69
2022-12-06T00:28:03.476Z,73464.72
2022-12-06T00:28:39.434Z,73464.72
2022-12-06T00:29:14.421Z,73468.69
2022-12-06T00:29:49.252Z,73472.69
2022-12-06T00:30:21.474Z,73468.69
2022-12-06T00:30:58.308Z,73470.69
2022-12-06T00:31:34.655Z,73474.69
2022-12-06T00:32:06.973Z,73470.69
2022-12-06T00:32:39.252Z,73476.69
2022-12-06T00:33:14.069Z,73468.69
2022-12-06T00:33:46.405Z,73468.69
2022-12-06T00:34:18.651Z,73472.69
2022-12-06T00:34:53.480Z,73474.69
2022-12-06T00:35:25.680Z,73464.72
2022-12-06T00:35:58.994Z,73472.69
2022-12-06T00:36:35.687Z,73468.69
2022-12-06T00:37:07.888Z,73468.69
2022-12-06T00:37:40.416Z,73472.69
2022-12-06T00:38:12.627Z,73470.69
2022-12-06T00:38:47.529Z,73476.69
2022-12-06T00:39:19.766Z,73476.69
2022-12-06T00:39:51.972Z,73472.69
2022-12-06T00:40:26.787Z,73474.69
2022-12-06T00:41:00.024Z,73472.69
2022-12-06T00:41:32.341Z,73474.69
2022-12-06T00:42:09.803Z,73476.69
2022-12-06T00:42:42.023Z,73476.69
2022-12-06T00:43:14.251Z,73476.69
2022-12-06T00:43:49.444Z,73472.69
2022-12-06T00:44:21.922Z,73476.69
2022-12-06T00:44:56.737Z,73468.69
2022-12-06T00:45:28.964Z,73470.69
2022-12-06T00:46:01.986Z,73472.69
2022-12-06T00:46:37.557Z,73470.69
2022-12-06T00:47:09.809Z,73466.69
2022-12-06T00:47:42.083Z,73468.69
2022-12-06T00:48:16.916Z,73470.69
2022-12-06T00:48:49.739Z,73472.69
2022-12-06T00:49:21.954Z,73468.69
2022-12-06T00:49:56.956Z,73472.69
2022-12-06T00:50:29.773Z,73466.69
2022-12-06T00:51:01.998Z,73468.69
2022-12-06T00:51:37.745Z,73468.69
2022-12-06T00:52:09.992Z,73472.69
2022-12-06T00:52:42.220Z,73472.69
2022-12-06T00:53:17.160Z,73470.69
2022-12-06T00:53:49.668Z,73468.69
2022-12-06T00:54:21.896Z,73468.69
2022-12-06T00:54:56.707Z,73470.69
2022-12-06T00:55:28.924Z,73468.69
2022-12-06T00:56:01.172Z,73470.69
2022-12-06T00:56:37.880Z,73472.69
2022-12-06T00:57:12.793Z,73468.69
2022-12-06T00:57:45.060Z,73478.69
2022-12-06T00:58:20.712Z,73466.69
2022-12-06T00:58:53.046Z,73472.69
2022-12-06T00:59:27.893Z,73470.69
2022-12-06T01:00:00.272Z,73460.72
2022-12-06T01:00:32.664Z,73460.72
2022-12-06T01:01:09.983Z,73468.69
2022-12-06T01:01:44.934Z,73464.72
2022-12-06T01:02:17.201Z,73468.69
2022-12-06T01:02:49.449Z,73464.72
2022-12-06T01:03:24.845Z,73464.72
2022-12-06T01:04:01.088Z,73460.72
2022-12-06T01:04:33.752Z,73466.69
2022-12-06T01:05:09.293Z,73472.69
2022-12-06T01:05:42.136Z,73462.72
2022-12-06T01:06:16.210Z,73466.69
2022-12-06T01:06:51.016Z,73464.72
2022-12-06T01:07:23.345Z,73460.72
2022-12-06T01:07:55.874Z,73460.72
2022-12-06T01:08:30.735Z,73460.72
2022-12-06T01:09:06.207Z,73464.72
2022-12-06T01:09:42.602Z,73462.72
2022-12-06T01:10:14.952Z,73464.72
2022-12-06T01:10:52.343Z,73468.69
2022-12-06T01:11:27.870Z,73462.72
2022-12-06T01:12:00.109Z,73468.69
2022-12-06T01:12:34.951Z,73468.69
2022-12-06T01:13:11.029Z,73472.69
2022-12-06T01:13:43.944Z,73470.69
2022-12-06T01:14:16.195Z,73466.69
2022-12-06T01:14:51.124Z,73472.69
2022-12-06T01:15:23.347Z,73468.69
2022-12-06T01:15:56.840Z,73466.69
2022-12-06T01:16:32.729Z,73472.69
2022-12-06T01:17:05.021Z,73478.69
2022-12-06T01:17:37.344Z,73476.69
2022-12-06T01:18:12.176Z,73474.69
2022-12-06T01:18:45.658Z,73470.69
2022-12-06T01:19:20.470Z,73478.69
2022-12-06T01:19:52.712Z,73484.66
2022-12-06T01:20:25.014Z,73480.69
2022-12-06T01:20:57.241Z,73480.69
2022-12-06T01:21:32.617Z,73484.66
2022-12-06T01:22:05.370Z,73476.69
2022-12-06T01:22:37.579Z,73484.66
2022-12-06T01:23:12.401Z,73484.66
2022-12-06T01:23:45.752Z,73478.69
2022-12-06T01:24:20.543Z,73482.69
2022-12-06T01:24:52.814Z,73484.66
2022-12-06T01:25:26.335Z,73484.66
2022-12-06T01:26:01.708Z,73488.66
2022-12-06T01:26:35.182Z,73492.66
2022-12-06T01:27:10.054Z,73488.66
2022-12-06T01:27:44.922Z,73490.66
2022-12-06T01:28:17.151Z,73488.66
2022-12-06T01:28:52.003Z,73494.66
2022-12-06T01:29:24.229Z,73488.66
2022-12-06T01:29:56.599Z,73496.66
2022-12-06T01:30:32.064Z,73496.66
2022-12-06T01:31:07.405Z,73488.66
2022-12-06T01:31:39.728Z,73494.66
2022-12-06T01:32:14.621Z,73500.63
2022-12-06T01:32:46.834Z,73488.66
2022-12-06T01:33:19.075Z,73492.66
2022-12-06T01:33:53.929Z,73490.66
2022-12-06T01:34:26.165Z,73492.66
2022-12-06T01:34:58.396Z,73490.66
2022-12-06T01:35:33.229Z,73494.66
2022-12-06T01:36:05.812Z,73486.66
2022-12-06T01:36:38.012Z,73492.66
2022-12-06T01:37:12.819Z,73488.66
2022-12-06T01:37:45.029Z,73492.66
2022-12-06T01:38:17.302Z,73490.66
2022-12-06T01:38:53.593Z,73486.66
2022-12-06T01:39:25.801Z,73492.66
2022-12-06T01:39:58.314Z,73494.66
2022-12-06T01:40:33.262Z,73492.66
2022-12-06T01:41:05.588Z,73494.66
2022-12-06T01:41:38.539Z,73488.66
2022-12-06T01:42:14.000Z,73492.66
2022-12-06T01:42:49.192Z,73496.66
2022-12-06T01:43:32.585Z,73494.66
2022-12-06T01:44:08.256Z,73492.66
2022-12-06T01:44:43.100Z,73496.66
2022-12-06T01:45:15.550Z,73492.66
2022-12-06T01:45:50.424Z,73494.66
2022-12-06T01:46:29.911Z,73496.66
2022-12-06T01:47:04.760Z,73500.63
2022-12-06T01:47:39.596Z,73496.66
2022-12-06T01:48:11.972Z,73496.66
2022-12-06T01:48:47.062Z,73500.63
2022-12-06T01:49:22.196Z,73496.66
2022-12-06T01:49:58.137Z,73492.66
2022-12-06T01:50:35.629Z,73500.63
2022-12-06T01:51:09.808Z,73504.63
2022-12-06T01:51:47.470Z,73498.66
2022-12-06T01:52:19.974Z,73498.66
2022-12-06T01:52:55.306Z,73496.66
2022-12-06T01:53:27.794Z,73490.66
2022-12-06T01:54:03.192Z,73492.66
2022-12-06T01:54:35.457Z,73492.66
2022-12-06T01:55:08.803Z,73492.66
2022-12-06T01:55:43.889Z,73494.66
2022-12-06T01:56:16.367Z,73496.66
2022-12-06T01:56:49.733Z,73500.63
2022-12-06T01:57:24.681Z,73490.66
2022-12-06T01:58:02.862Z,73496.66
2022-12-06T01:58:39.277Z,73492.66
2022-12-06T01:59:14.528Z,73492.66
2022-12-06T01:59:46.961Z,73496.66
2022-12-06T02:00:20.188Z,73488.66
2022-12-06T02:00:55.178Z,73492.66
2022-12-06T02:01:28.760Z,73488.66
2022-12-06T02:02:01.233Z,73492.66
2022-12-06T02:02:36.247Z,73492.66
2022-12-06T02:03:13.016Z,73490.66
2022-12-06T02:03:45.435Z,73484.66
2022-12-06T02:04:21.107Z,73492.66
2022-12-06T02:04:53.724Z,73496.66
2022-12-06T02:05:25.992Z,73488.66
2022-12-06T02:06:01.220Z,73496.66
2022-12-06T02:06:33.528Z,73492.66
2022-12-06T02:07:08.668Z,73490.66
2022-12-06T02:07:41.331Z,73492.66
2022-12-06T02:08:14.192Z,73486.66
2022-12-06T02:08:49.376Z,73498.66
2022-12-06T02:09:22.198Z,73502.63
2022-12-06T02:09:57.985Z,73496.66
2022-12-06T02:10:31.453Z,73496.66
2022-12-06T02:11:04.510Z,73492.66
2022-12-06T02:11:39.544Z,73496.66
2022-12-06T02:12:13.296Z,73500.63
2022-12-06T02:12:45.657Z,73492.66
2022-12-06T02:13:24.120Z,73496.66
2022-12-06T02:13:56.589Z,73490.66
2022-12-06T02:14:34.260Z,73488.66
2022-12-06T02:15:07.723Z,73496.66
2022-12-06T02:15:47.563Z,73496.66
2022-12-06T02:16:51.194Z,73496.66
2022-12-06T02:17:32.210Z,73484.66
2022-12-06T02:18:07.902Z,73488.66
2022-12-06T02:18:46.852Z,73488.66
2022-12-06T02:19:35.320Z,73488.66
2022-12-06T02:20:21.755Z,73488.66
2022-12-06T02:21:00.099Z,73488.66
2022-12-06T02:21:36.736Z,73488.66
2022-12-06T02:22:15.238Z,73488.66
2022-12-06T02:23:17.382Z,73488.66
2022-12-06T02:24:21.516Z,73480.69
2022-12-06T02:25:00.155Z,73486.66
2022-12-06T02:26:05.395Z,73486.66
2022-12-06T02:26:39.929Z,73488.66
2022-12-06T02:27:33.502Z,73480.69
2022-12-06T02:28:24.956Z,73480.69
2022-12-06T02:29:29.529Z,73476.69
2022-12-06T02:30:09.603Z,73480.69
2022-12-06T02:30:46.678Z,73482.69
2022-12-06T02:31:24.666Z,73478.69
2022-12-06T02:31:58.696Z,73482.69
2022-12-06T02:32:35.783Z,73480.69
2022-12-06T02:33:12.990Z,73478.69
2022-12-06T02:33:47.761Z,73476.69
2022-12-06T02:34:22.952Z,73474.69
2022-12-06T02:34:59.645Z,73474.69
2022-12-06T02:35:33.719Z,73480.69
2022-12-06T02:36:08.476Z,73476.69
2022-12-06T02:36:49.378Z,73476.69
2022-12-06T02:37:25.932Z,73472.69
2022-12-06T02:38:00.275Z,73472.69
2022-12-06T02:38:38.264Z,73476.69
2022-12-06T02:39:14.013Z,73476.69
2022-12-06T02:39:50.011Z,73474.69
2022-12-06T02:40:27.167Z,73468.69
2022-12-06T02:41:01.931Z,73470.69
2022-12-06T02:41:36.727Z,73466.69
2022-12-06T02:42:13.588Z,73470.69
2022-12-06T02:42:53.105Z,73468.69
2022-12-06T02:43:27.801Z,73460.72
2022-12-06T02:44:03.925Z,73472.69
2022-12-06T02:44:41.309Z,73472.69
2022-12-06T02:45:15.727Z,73470.69
2022-12-06T02:45:53.020Z,73476.69
2022-12-06T02:46:30.024Z,73472.69
2022-12-06T02:47:04.537Z,73472.69
2022-12-06T02:47:37.745Z,73478.69
2022-12-06T02:48:10.875Z,73480.69
2022-12-06T02:48:46.168Z,73468.69
2022-12-06T02:49:18.563Z,73468.69
2022-12-06T02:49:54.744Z,73468.69
2022-12-06T02:50:30.940Z,73468.69
2022-12-06T02:51:07.661Z,73476.69
2022-12-06T02:51:40.548Z,73472.69
2022-12-06T02:52:14.042Z,73472.69
2022-12-06T02:52:52.532Z,73472.69
2022-12-06T02:53:26.640Z,73468.69
2022-12-06T02:54:01.640Z,73464.72
2022-12-06T02:54:36.512Z,73468.69
2022-12-06T02:55:09.623Z,73472.69
2022-12-06T02:55:42.297Z,73464.72
2022-12-06T02:56:18.693Z,73462.72
2022-12-06T02:56:51.088Z,73468.69
2022-12-06T02:57:28.142Z,73464.72
2022-12-06T02:58:02.971Z,73464.72
2022-12-06T02:58:35.923Z,73462.72
2022-12-06T02:59:08.128Z,73458.72
2022-12-06T02:59:42.963Z,73460.72
2022-12-06T03:00:32.298Z,73464.72
2022-12-06T03:01:11.025Z,73460.72
2022-12-06T03:01:48.136Z,73464.72
2022-12-06T03:02:20.992Z,73460.72
2022-12-06T03:02:55.275Z,73458.72
2022-12-06T03:03:50.395Z,73456.72
2022-12-06T03:04:46.513Z,73458.72
2022-12-06T03:05:24.556Z,73452.72
2022-12-06T03:06:17.548Z,73456.72
2022-12-06T03:06:59.758Z,73460.72
2022-12-06T03:07:41.954Z,73460.72
2022-12-06T03:08:18.644Z,73456.72
2022-12-06T03:08:59.098Z,73468.69
2022-12-06T03:09:44.402Z,73460.72
2022-12-06T03:10:39.137Z,73452.72
2022-12-06T03:11:14.333Z,73464.72
2022-12-06T03:11:53.833Z,73456.72
2022-12-06T03:12:31.676Z,73460.72
2022-12-06T03:13:12.073Z,73460.72
2022-12-06T03:13:52.252Z,73460.72
2022-12-06T03:14:26.333Z,73456.72
2022-12-06T03:15:08.962Z,73460.72
2022-12-06T03:15:48.045Z,73462.72
2022-12-06T03:16:28.201Z,73456.72
2022-12-06T03:17:08.780Z,73456.72
2022-12-06T03:17:43.644Z,73460.72
2022-12-06T03:18:20.280Z,73452.72
2022-12-06T03:18:59.016Z,73460.72
2022-12-06T03:19:32.008Z,73456.72
2022-12-06T03:20:07.976Z,73456.72
2022-12-06T03:20:46.946Z,73460.72
2022-12-06T03:21:22.812Z,73456.72
2022-12-06T03:22:01.908Z,73460.72
2022-12-06T03:22:40.045Z,73454.72
2022-12-06T03:23:14.798Z,73462.72
2022-12-06T03:23:51.388Z,73458.72
2022-12-06T03:24:25.119Z,73458.72
2022-12-06T03:24:57.712Z,73454.72
2022-12-06T03:25:30.160Z,73460.72
2022-12-06T03:26:06.174Z,73450.72
2022-12-06T03:26:39.470Z,73454.72
2022-12-06T03:27:13.468Z,73452.72
2022-12-06T03:27:49.932Z,73444.75
2022-12-06T03:28:22.496Z,73448.75
2022-12-06T03:28:57.144Z,73446.75
2022-12-06T03:29:31.029Z,73448.75
2022-12-06T03:30:08.921Z,73444.75
2022-12-06T03:30:41.711Z,73452.72
2022-12-06T03:31:15.115Z,73438.75
2022-12-06T03:31:53.161Z,73416.78
2022-12-06T03:32:28.899Z,73396.84
2022-12-06T03:33:02.185Z,73380.88
2022-12-06T03:33:38.490Z,73358.91
2022-12-06T03:34:12.824Z,73348.91
2022-12-06T03:34:47.803Z,73336.94
2022-12-06T03:35:25.740Z,73328.97
2022-12-06T03:35:58.965Z,73316.97
2022-12-06T03:36:31.788Z,73305.00
2022-12-06T03:37:07.817Z,73301.00
2022-12-06T03:37:43.093Z,73291.03
2022-12-06T03:38:18.929Z,73281.06
2022-12-06T03:38:56.681Z,73277.06
2022-12-06T03:39:35.302Z,73269.06
2022-12-06T03:40:12.223Z,73261.09
2022-12-06T03:40:49.198Z,73261.09
2022-12-06T03:41:24.772Z,73257.09
2022-12-06T03:41:58.597Z,73249.09
2022-12-06T03:42:34.072Z,73249.09
2022-12-06T03:43:06.479Z,73243.13
2022-12-06T03:43:38.774Z,73233.13
2022-12-06T03:44:13.604Z,73237.13
2022-12-06T03:44:47.430Z,73233.13
2022-12-06T03:45:21.436Z,73235.13
2022-12-06T03:45:59.656Z,73233.13
2022-12-06T03:46:34.629Z,73229.16
2022-12-06T03:47:12.496Z,73225.16
2022-12-06T03:47:52.851Z,73221.16
2022-12-06T03:48:28.180Z,73225.16
2022-12-06T03:49:02.372Z,73225.16
2022-12-06T03:49:41.377Z,73215.19
2022-12-06T03:50:17.376Z,73217.16
2022-12-06T03:50:58.210Z,73217.16
2022-12-06T03:51:34.976Z,73217.16
2022-12-06T03:52:07.233Z,73217.16
2022-12-06T03:52:39.856Z,73207.19
2022-12-06T03:53:14.729Z,73213.19
2022-12-06T03:53:48.108Z,73201.19
2022-12-06T03:54:20.391Z,73213.19
2022-12-06T03:54:55.252Z,73209.19
2022-12-06T03:55:27.511Z,73207.19
2022-12-06T03:56:00.013Z,73213.19
2022-12-06T03:56:38.470Z,73205.19
2022-12-06T03:57:10.877Z,73205.19
2022-12-06T03:57:45.073Z,73207.19
2022-12-06T03:58:19.913Z,73201.19
2022-12-06T03:58:52.416Z,73203.19
2022-12-06T03:59:24.677Z,73205.19
2022-12-06T03:59:59.695Z,73197.22
2022-12-06T04:00:32.137Z,73205.19
2022-12-06T04:01:05.052Z,73199.22
2022-12-06T04:01:41.070Z,73205.19
2022-12-06T04:02:16.021Z,73201.19
2022-12-06T04:02:48.336Z,73201.19
2022-12-06T04:03:20.718Z,73201.19
2022-12-06T04:03:55.674Z,73201.19
2022-12-06T04:04:27.969Z,73201.19
2022-12-06T04:05:00.184Z,73197.22
2022-12-06T04:05:35.000Z,73205.19
2022-12-06T04:06:09.195Z,73201.19
2022-12-06T04:06:41.421Z,73197.22
2022-12-06T04:07:13.727Z,73197.22
2022-12-06T04:07:48.604Z,73201.19
2022-12-06T04:08:22.036Z,73199.22
2022-12-06T04:09:17.352Z,73193.22
2022-12-06T04:10:03.187Z,73193.22
2022-12-06T04:10:35.802Z,73193.22
2022-12-06T04:11:10.697Z,73189.22
2022-12-06T04:11:43.004Z,73193.22
2022-12-06T04:12:30.212Z,73189.22
2022-12-06T04:13:02.464Z,73191.22
2022-12-06T04:13:38.118Z,73191.22
2022-12-06T04:14:10.468Z,73189.22
2022-12-06T04:14:42.667Z,73189.22
2022-12-06T04:15:17.760Z,73187.22
2022-12-06T04:15:50.055Z,73187.22
2022-12-06T04:16:37.307Z,73187.22
2022-12-06T04:17:24.516Z,73189.22
2022-12-06T04:18:14.675Z,73181.25
2022-12-06T04:18:48.044Z,73187.22
2022-12-06T04:19:20.275Z,73185.22
2022-12-06T04:19:52.484Z,73181.25
2022-12-06T04:20:25.463Z,73181.25
2022-12-06T04:21:14.029Z,73181.25
2022-12-06T04:22:01.300Z,73177.25
2022-12-06T04:22:48.608Z,73181.25
2022-12-06T04:23:23.939Z,73177.25
2022-12-06T04:23:56.140Z,73177.25
2022-12-06T04:24:28.438Z,73185.22
2022-12-06T04:25:03.245Z,73181.25
2022-12-06T04:25:36.913Z,73181.25
2022-12-06T04:26:10.779Z,73181.25
2022-12-06T04:26:45.589Z,73177.25
2022-12-06T04:27:32.795Z,73177.25
2022-12-06T04:28:20.285Z,73181.25
2022-12-06T04:29:08.746Z,73183.22
2022-12-06T04:29:55.945Z,73183.22
2022-12-06T04:30:43.165Z,73181.25
2022-12-06T04:31:30.561Z,73185.22
2022-12-06T04:32:17.893Z,73177.25
2022-12-06T04:33:05.123Z,73181.25
2022-12-06T04:33:54.952Z,73177.25
2022-12-06T04:34:42.165Z,73177.25
2022-12-06T04:35:29.523Z,73181.25
2022-12-06T04:36:16.744Z,73173.25
2022-12-06T04:37:04.103Z,73185.22
2022-12-06T04:37:51.340Z,73175.25
2022-12-06T04:38:38.565Z,73177.25
2022-12-06T04:39:19.179Z,73171.25
2022-12-06T04:39:53.033Z,73175.25
2022-12-06T04:40:27.860Z,73177.25
2022-12-06T04:41:00.090Z,73177.25
2022-12-06T04:41:47.340Z,73177.25
2022-12-06T04:42:34.945Z,73177.25
2022-12-06T04:43:23.230Z,73173.25
2022-12-06T04:43:55.471Z,73171.25
2022-12-06T04:44:27.705Z,73173.25
2022-12-06T04:45:02.639Z,73177.25
2022-12-06T04:45:34.993Z,73177.25
2022-12-06T04:46:07.289Z,73181.25
2022-12-06T04:46:39.541Z,73183.22
2022-12-06T04:47:14.600Z,73181.25
2022-12-06T04:47:46.909Z,73187.22
2022-12-06T04:48:19.108Z,73187.22
2022-12-06T04:48:56.552Z,73181.25
2022-12-06T04:49:28.754Z,73183.22
2022-12-06T04:50:03.779Z,73185.22
2022-12-06T04:50:36.091Z,73185.22
2022-12-06T04:51:13.218Z,73187.22
2022-12-06T04:51:45.555Z,73185.22
2022-12-06T04:52:20.715Z,73189.22
2022-12-06T04:52:52.957Z,73185.22
2022-12-06T04:53:25.184Z,73189.22
2022-12-06T04:54:00.032Z,73183.22
2022-12-06T04:54:32.554Z,73193.22
2022-12-06T04:55:08.527Z,73189.22
2022-12-06T04:55:40.786Z,73193.22
2022-12-06T04:56:13.016Z,73193.22
2022-12-06T04:56:47.816Z,73185.22
2022-12-06T04:57:20.379Z,73197.22
2022-12-06T04:57:52.592Z,73185.22
2022-12-06T04:58:27.864Z,73189.22
2022-12-06T04:59:00.161Z,73193.22
2022-12-06T04:59:32.363Z,73185.22
2022-12-06T05:00:08.822Z,73189.22
2022-12-06T05:00:43.779Z,73193.22
2022-12-06T05:01:16.110Z,73187.22
2022-12-06T05:01:51.026Z,73189.22
2022-12-06T05:02:23.276Z,73189.22
2022-12-06T05:02:55.504Z,73189.22
2022-12-06T05:03:30.352Z,73189.22
2022-12-06T05:04:05.572Z,73183.22
2022-12-06T05:04:37.847Z,73187.22
2022-12-06T05:05:12.968Z,73187.22
2022-12-06T05:05:45.196Z,73181.25
2022-12-06T05:06:17.433Z,73181.25
2022-12-06T05:06:52.614Z,73185.22
2022-12-06T05:07:24.832Z,73185.22
2022-12-06T05:07:57.142Z,73189.22
2022-12-06T05:08:29.516Z,73189.22
2022-12-06T05:09:04.420Z,73189.22
2022-12-06T05:09:36.754Z,73185.22
2022-12-06T05:10:09.516Z,73185.22
2022-12-06T05:10:44.357Z,73185.22
2022-12-06T05:11:16.556Z,73185.22
2022-12-06T05:11:48.760Z,73189.22
2022-12-06T05:12:23.865Z,73181.25
2022-12-06T05:12:56.104Z,73189.22
2022-12-06T05:13:28.324Z,73197.22
2022-12-06T05:14:03.352Z,73189.22
2022-12-06T05:14:35.628Z,73183.22
2022-12-06T05:15:09.063Z,73189.22
2022-12-06T05:15:43.981Z,73187.22
2022-12-06T05:16:16.272Z,73189.22
2022-12-06T05:16:48.600Z,73193.22
2022-12-06T05:17:23.482Z,73193.22
2022-12-06T05:17:55.831Z,73201.19
2022-12-06T05:18:28.960Z,73185.22
2022-12-06T05:19:03.770Z,73191.22
2022-12-06T05:19:38.640Z,73197.22
2022-12-06T05:20:11.660Z,73195.22
2022-12-06T05:20:46.485Z,73193.22
2022-12-06T05:21:20.181Z,73189.22
2022-12-06T05:21:55.005Z,73191.22
2022-12-06T05:22:27.220Z,73189.22
2022-12-06T05:22:59.451Z,73189.22
2022-12-06T05:23:34.344Z,73189.22
2022-12-06T05:24:07.761Z,73193.22
2022-12-06T05:24:40.007Z,73201.19
2022-12-06T05:25:15.159Z,73197.22
2022-12-06T05:25:47.369Z,73195.22
2022-12-06T05:26:21.515Z,73197.22
2022-12-06T05:26:56.309Z,73197.22
2022-12-06T05:27:32.925Z,73189.22
2022-12-06T05:28:09.110Z,73195.22
2022-12-06T05:28:44.418Z,73193.22
2022-12-06T05:29:16.695Z,73193.22
2022-12-06T05:29:48.915Z,73193.22
2022-12-06T05:30:23.952Z,73193.22
2022-12-06T05:30:56.758Z,73197.22
2022-12-06T05:31:29.046Z,73193.22
2022-12-06T05:32:03.943Z,73193.22
2022-12-06T05:32:37.866Z,73197.22
2022-12-06T05:33:10.089Z,73199.22
2022-12-06T05:33:42.527Z,73191.22
2022-12-06T05:34:17.449Z,73197.22
2022-12-06T05:34:52.265Z,73195.22
2022-12-06T05:35:24.557Z,73193.22
2022-12-06T05:35:59.445Z,73193.22
2022-12-06T05:36:31.696Z,73197.22
2022-12-06T05:37:03.953Z,73193.22
2022-12-06T05:37:38.794Z,73201.19
2022-12-06T05:38:11.001Z,73197.22
2022-12-06T05:38:47.105Z,73191.22
2022-12-06T05:39:26.276Z,73193.22
2022-12-06T05:39:59.045Z,73197.22
2022-12-06T05:40:31.472Z,73193.22
2022-12-06T05:41:07.213Z,73195.22
2022-12-06T05:41:39.422Z,73193.22
2022-12-06T05:42:22.142Z,73193.22
2022-12-06T05:42:54.825Z,73199.22
2022-12-06T05:43:27.065Z,73193.22
2022-12-06T05:44:01.876Z,73193.22
2022-12-06T05:44:34.132Z,73195.22
2022-12-06T05:45:07.600Z,73197.22
2022-12-06T05:45:42.566Z,73197.22
2022-12-06T05:46:14.921Z,73199.22
2022-12-06T05:46:49.758Z,73189.22
2022-12-06T05:47:21.966Z,73189.22
2022-12-06T05:47:54.240Z,73189.22
2022-12-06T05:48:26.564Z,73197.22
2022-12-06T05:49:01.375Z,73183.22
2022-12-06T05:49:33.972Z,73193.22
2022-12-06T05:50:10.144Z,73189.22
2022-12-06T05:50:44.961Z,73189.22
2022-12-06T05:51:17.174Z,73191.22
2022-12-06T05:51:49.391Z,73191.22
2022-12-06T05:52:24.187Z,73189.22
2022-12-06T05:52:56.988Z,73191.22
2022-12-06T05:53:29.201Z,73193.22
2022-12-06T05:54:06.765Z,73195.22
2022-12-06T05:54:39.076Z,73193.22
2022-12-06T05:55:11.289Z,73189.22
2022-12-06T05:55:46.376Z,73191.22
2022-12-06T05:56:18.613Z,73195.22
2022-12-06T05:56:51.166Z,73189.22
2022-12-06T05:57:25.978Z,73189.22
2022-12-06T05:57:58.264Z,73193.22
2022-12-06T05:58:30.544Z,73193.22
2022-12-06T05:59:06.019Z,73193.22
2022-12-06T05:59:38.215Z,73193.22
2022-12-06T06:00:11.622Z,73195.22
2022-12-06T06:00:49.551Z,73193.22
2022-12-06T06:01:21.781Z,73205.19
2022-12-06T06:01:54.033Z,73223.16
2022-12-06T06:02:29.064Z,73241.13
2022-12-06T06:03:01.523Z,73249.09
2022-12-06T06:03:34.065Z,73261.09
2022-12-06T06:04:08.943Z,73281.06
2022-12-06T06:04:41.181Z,73293.03
2022-12-06T06:05:16.169Z,73309.00
2022-12-06T06:05:52.779Z,73316.97
2022-12-06T06:06:25.013Z,73334.94
2022-12-06T06:06:57.266Z,73340.94
2022-12-06T06:07:32.448Z,73348.91
2022-12-06T06:08:05.283Z,73356.91
2022-12-06T06:08:40.176Z,73360.91
2022-12-06T06:09:12.404Z,73376.88
2022-12-06T06:09:44.683Z,73378.88
2022-12-06T06:10:19.854Z,73384.84
2022-12-06T06:10:52.129Z,73384.84
2022-12-06T06:11:26.961Z,73386.84
2022-12-06T06:11:59.217Z,73396.84
2022-12-06T06:12:31.594Z,73392.84
2022-12-06T06:13:06.599Z,73400.81
2022-12-06T06:13:38.814Z,73404.81
2022-12-06T06:14:14.980Z,73404.81
2022-12-06T06:14:47.618Z,73402.81
2022-12-06T06:15:19.964Z,73412.81
2022-12-06T06:15:54.984Z,73412.81
2022-12-06T06:16:27.256Z,73416.78
2022-12-06T06:17:02.251Z,73416.78
2022-12-06T06:17:34.764Z,73418.78
2022-12-06T06:18:06.984Z,73424.78
2022-12-06T06:18:41.831Z,73432.75
2022-12-06T06:19:14.145Z,73432.75
2022-12-06T06:19:51.194Z,73440.75
2022-12-06T06:20:28.885Z,73428.78
2022-12-06T06:21:01.235Z,73438.75
2022-12-06T06:21:36.084Z,73436.75
2022-12-06T06:22:08.310Z,73444.75
2022-12-06T06:22:41.890Z,73436.75
2022-12-06T06:23:16.700Z,73440.75
2022-12-06T06:23:48.996Z,73432.75
2022-12-06T06:24:23.851Z,73440.75
2022-12-06T06:24:56.094Z,73434.75
2022-12-06T06:25:28.381Z,73436.75
2022-12-06T06:26:03.196Z,73444.75
2022-12-06T06:26:35.422Z,73436.75
2022-12-06T06:27:07.659Z,73446.75
2022-12-06T06:27:42.473Z,73448.75
2022-12-06T06:28:14.721Z,73446.75
2022-12-06T06:28:49.553Z,73454.72
2022-12-06T06:29:21.792Z,73448.75
2022-12-06T06:29:54.007Z,73444.75
2022-12-06T06:30:28.820Z,73448.75
2022-12-06T06:31:02.807Z,73444.75
2022-12-06T06:31:37.719Z,73448.75
2022-12-06T06:32:09.998Z,73448.75
2022-12-06T06:32:42.254Z,73456.72
2022-12-06T06:33:17.551Z,73456.72
2022-12-06T06:33:49.800Z,73456.72
2022-12-06T06:34:22.032Z,73456.72
2022-12-06T06:34:56.864Z,73452.72
2022-12-06T06:35:31.704Z,73448.75
2022-12-06T06:36:07.500Z,73456.72
2022-12-06T06:36:44.082Z,73456.72
2022-12-06T06:37:20.655Z,73454.72
2022-12-06T06:37:52.883Z,73460.72
2022-12-06T06:38:25.216Z,73456.72
2022-12-06T06:39:00.752Z,73452.72
2022-12-06T06:39:33.196Z,73458.72
2022-12-06T06:40:06.912Z,73454.72
2022-12-06T06:40:41.740Z,73456.72
2022-12-06T06:41:13.965Z,73450.72
2022-12-06T06:41:46.460Z,73454.72
2022-12-06T06:42:21.299Z,73460.72
2022-12-06T06:42:53.536Z,73464.72
2022-12-06T06:43:25.999Z,73458.72
2022-12-06T06:44:00.852Z,73456.72
2022-12-06T06:44:33.112Z,73458.72
2022-12-06T06:45:06.483Z,73464.72
2022-12-06T06:45:41.328Z,73460.72
2022-12-06T06:46:13.724Z,73468.69
2022-12-06T06:46:46.029Z,73468.69
2022-12-06T06:47:20.844Z,73466.69
2022-12-06T06:47:53.088Z,73464.72
2022-12-06T06:48:27.138Z,73468.69
2022-12-06T06:49:02.008Z,73468.69
2022-12-06T06:49:34.316Z,73468.69
2022-12-06T06:50:10.760Z,73468.69
2022-12-06T06:50:45.607Z,73470.69
2022-12-06T06:51:17.895Z,73464.72
2022-12-06T06:51:52.697Z,73472.69
2022-12-06T06:52:24.923Z,73472.69
2022-12-06T06:52:59.957Z,73476.69
2022-12-06T06:53:32.622Z,73472.69
2022-12-06T06:54:07.687Z,73472.69